sensor_id;sensor_type;location;lat;lon;timestamp;pressure;altitude;pressure_sealevel;temperature;humidity
5053;BME280;2545;50.892;5.740;2023-12-14T00:01:14;56370.94;;;-142.21;100.00
5053;BME280;2545;50.892;5.740;2023-12-14T00:03:40;56441.53;;;-142.21;100.00
5053;BME280;2545;50.892;5.740;2023-12-14T00:06:12;56429.75;;;-142.21;100.00
5053;BME280;2545;50.892;5.740;2023-12-14T00:08:38;56421.91;;;-142.21;100.00
5053;BME280;2545;50.892;5.740;2023-12-14T00:11:07;56412.13;;;-142.21;100.00
5053;BME280;2545;50.892;5.740;2023-12-14T00:13:33;56419.97;;;-142.21;100.00
5053;BME280;2545;50.892;5.740;2023-12-14T00:15:58;56421.91;;;-142.21;100.00
5053;BME280;2545;50.892;5.740;2023-12-14T00:18:24;56449.38;;;-142.21;100.00
5053;BME280;2545;50.892;5.740;2023-12-14T00:20:49;56396.44;;;-142.21;100.00
5053;BME280;2545;50.892;5.740;2023-12-14T00:23:15;56439.56;;;-142.21;100.00
5053;BME280;2545;50.892;5.740;2023-12-14T00:25:40;56398.38;;;-142.21;100.00
5053;BME280;2545;50.892;5.740;2023-12-14T00:28:05;56402.31;;;-142.21;100.00
5053;BME280;2545;50.892;5.740;2023-12-14T00:30:30;56414.06;;;-142.21;100.00
5053;BME280;2545;50.892;5.740;2023-12-14T00:32:56;56423.88;;;-142.21;100.00
5053;BME280;2545;50.892;5.740;2023-12-14T00:35:21;56370.94;;;-142.21;100.00
5053;BME280;2545;50.892;5.740;2023-12-14T00:37:46;56484.69;;;-142.21;100.00
5053;BME280;2545;50.892;5.740;2023-12-14T00:40:12;56427.81;;;-142.21;100.00
5053;BME280;2545;50.892;5.740;2023-12-14T00:42:37;56457.22;;;-142.21;100.00
5053;BME280;2545;50.892;5.740;2023-12-14T00:45:03;56449.38;;;-142.21;100.00
5053;BME280;2545;50.892;5.740;2023-12-14T00:47:28;56427.81;;;-142.21;100.00
5053;BME280;2545;50.892;5.740;2023-12-14T00:49:53;56410.16;;;-142.21;100.00
5053;BME280;2545;50.892;5.740;2023-12-14T00:52:22;56451.34;;;-142.21;100.00
5053;BME280;2545;50.892;5.740;2023-12-14T00:54:47;56414.06;;;-142.21;100.00
5053;BME280;2545;50.892;5.740;2023-12-14T00:57:12;56363.09;;;-142.21;100.00
5053;BME280;2545;50.892;5.740;2023-12-14T00:59:38;56400.34;;;-142.21;100.00
5053;BME280;2545;50.892;5.740;2023-12-14T01:02:03;56406.22;;;-142.21;100.00
5053;BME280;2545;50.892;5.740;2023-12-14T01:04:29;56433.69;;;-142.21;100.00
5053;BME280;2545;50.892;5.740;2023-12-14T01:06:54;56435.66;;;-142.21;100.00
5053;BME280;2545;50.892;5.740;2023-12-14T01:09:20;56423.88;;;-142.21;100.00
5053;BME280;2545;50.892;5.740;2023-12-14T01:11:45;56429.75;;;-142.21;100.00
5053;BME280;2545;50.892;5.740;2023-12-14T01:14:10;56463.09;;;-142.21;100.00
5053;BME280;2545;50.892;5.740;2023-12-14T01:16:35;56386.63;;;-142.21;100.00
5053;BME280;2545;50.892;5.740;2023-12-14T01:19:01;56423.88;;;-142.21;100.00
5053;BME280;2545;50.892;5.740;2023-12-14T01:21:26;56400.34;;;-142.21;100.00
5053;BME280;2545;50.892;5.740;2023-12-14T01:23:51;56433.69;;;-142.21;100.00
5053;BME280;2545;50.892;5.740;2023-12-14T01:26:17;56441.53;;;-142.21;100.00
5053;BME280;2545;50.892;5.740;2023-12-14T01:28:43;56431.72;;;-142.21;100.00
5053;BME280;2545;50.892;5.740;2023-12-14T01:31:09;56390.53;;;-142.21;100.00
5053;BME280;2545;50.892;5.740;2023-12-14T01:33:35;56421.91;;;-142.21;100.00
5053;BME280;2545;50.892;5.740;2023-12-14T01:36:01;56421.91;;;-142.21;100.00
5053;BME280;2545;50.892;5.740;2023-12-14T01:38:26;56418.00;;;-142.21;100.00
5053;BME280;2545;50.892;5.740;2023-12-14T01:40:52;56410.16;;;-142.21;100.00
5053;BME280;2545;50.892;5.740;2023-12-14T01:43:17;56429.75;;;-142.21;100.00
5053;BME280;2545;50.892;5.740;2023-12-14T01:45:43;56445.44;;;-142.21;100.00
5053;BME280;2545;50.892;5.740;2023-12-14T01:48:08;56451.34;;;-142.21;100.00
5053;BME280;2545;50.892;5.740;2023-12-14T01:50:33;56416.03;;;-142.21;100.00
5053;BME280;2545;50.892;5.740;2023-12-14T01:52:59;56423.88;;;-142.21;100.00
5053;BME280;2545;50.892;5.740;2023-12-14T01:55:24;56451.34;;;-142.21;100.00
5053;BME280;2545;50.892;5.740;2023-12-14T01:57:51;56386.63;;;-142.21;100.00
5053;BME280;2545;50.892;5.740;2023-12-14T02:00:34;56445.44;;;-142.21;100.00
5053;BME280;2545;50.892;5.740;2023-12-14T02:03:02;56431.72;;;-142.21;100.00
5053;BME280;2545;50.892;5.740;2023-12-14T02:05:27;56419.97;;;-142.21;100.00
5053;BME280;2545;50.892;5.740;2023-12-14T02:07:52;56427.81;;;-142.21;100.00
5053;BME280;2545;50.892;5.740;2023-12-14T02:10:19;56443.50;;;-142.21;100.00
5053;BME280;2545;50.892;5.740;2023-12-14T02:12:44;56437.59;;;-142.21;100.00
5053;BME280;2545;50.892;5.740;2023-12-14T02:15:10;56437.59;;;-142.21;100.00
5053;BME280;2545;50.892;5.740;2023-12-14T02:17:35;56370.94;;;-142.21;100.00
5053;BME280;2545;50.892;5.740;2023-12-14T02:20:00;56427.81;;;-142.21;100.00
5053;BME280;2545;50.892;5.740;2023-12-14T02:22:26;56427.81;;;-142.21;100.00
5053;BME280;2545;50.892;5.740;2023-12-14T02:24:51;56427.81;;;-142.21;100.00
5053;BME280;2545;50.892;5.740;2023-12-14T02:27:17;56402.31;;;-142.21;100.00
5053;BME280;2545;50.892;5.740;2023-12-14T02:29:42;56429.75;;;-142.21;100.00
5053;BME280;2545;50.892;5.740;2023-12-14T02:32:08;56451.34;;;-142.21;100.00
5053;BME280;2545;50.892;5.740;2023-12-14T02:34:34;56427.81;;;-142.21;100.00
5053;BME280;2545;50.892;5.740;2023-12-14T02:36:59;56437.59;;;-142.21;100.00
5053;BME280;2545;50.892;5.740;2023-12-14T02:39:24;56425.84;;;-142.21;100.00
5053;BME280;2545;50.892;5.740;2023-12-14T02:41:50;56427.81;;;-142.21;100.00
5053;BME280;2545;50.892;5.740;2023-12-14T02:44:15;56423.88;;;-142.21;100.00
5053;BME280;2545;50.892;5.740;2023-12-14T02:46:40;56390.53;;;-142.21;100.00
5053;BME280;2545;50.892;5.740;2023-12-14T02:49:06;56423.88;;;-142.21;100.00
5053;BME280;2545;50.892;5.740;2023-12-14T02:51:31;56433.69;;;-142.21;100.00
5053;BME280;2545;50.892;5.740;2023-12-14T02:53:56;56447.41;;;-142.21;100.00
5053;BME280;2545;50.892;5.740;2023-12-14T02:56:23;56419.97;;;-142.21;100.00
5053;BME280;2545;50.892;5.740;2023-12-14T02:58:49;56441.53;;;-142.21;100.00
5053;BME280;2545;50.892;5.740;2023-12-14T03:01:19;56441.53;;;-142.21;100.00
5053;BME280;2545;50.892;5.740;2023-12-14T03:03:45;56435.66;;;-142.21;100.00
5053;BME280;2545;50.892;5.740;2023-12-14T03:06:11;56392.50;;;-142.21;100.00
5053;BME280;2545;50.892;5.740;2023-12-14T03:08:36;56441.53;;;-142.21;100.00
5053;BME280;2545;50.892;5.740;2023-12-14T03:11:02;56457.22;;;-142.21;100.00
5053;BME280;2545;50.892;5.740;2023-12-14T03:13:27;56398.38;;;-142.21;100.00
5053;BME280;2545;50.892;5.740;2023-12-14T03:15:53;56418.00;;;-142.21;100.00
5053;BME280;2545;50.892;5.740;2023-12-14T03:18:19;56419.97;;;-142.21;100.00
5053;BME280;2545;50.892;5.740;2023-12-14T03:20:44;56421.91;;;-142.21;100.00
5053;BME280;2545;50.892;5.740;2023-12-14T03:23:09;56431.72;;;-142.21;100.00
5053;BME280;2545;50.892;5.740;2023-12-14T03:25:36;56416.03;;;-142.21;100.00
5053;BME280;2545;50.892;5.740;2023-12-14T03:28:01;56418.00;;;-142.21;100.00
5053;BME280;2545;50.892;5.740;2023-12-14T03:30:26;56425.84;;;-142.21;100.00
5053;BME280;2545;50.892;5.740;2023-12-14T03:32:52;56376.81;;;-142.21;100.00
5053;BME280;2545;50.892;5.740;2023-12-14T03:35:17;56427.81;;;-142.21;100.00
5053;BME280;2545;50.892;5.740;2023-12-14T03:37:42;56439.56;;;-142.21;100.00
5053;BME280;2545;50.892;5.740;2023-12-14T03:40:08;56439.56;;;-142.21;100.00
5053;BME280;2545;50.892;5.740;2023-12-14T03:42:33;56410.16;;;-142.21;100.00
5053;BME280;2545;50.892;5.740;2023-12-14T03:44:58;56431.72;;;-142.21;100.00
5053;BME280;2545;50.892;5.740;2023-12-14T03:47:24;56463.09;;;-142.21;100.00
5053;BME280;2545;50.892;5.740;2023-12-14T03:49:49;56443.50;;;-142.21;100.00
5053;BME280;2545;50.892;5.740;2023-12-14T03:52:15;56421.91;;;-142.21;100.00
5053;BME280;2545;50.892;5.740;2023-12-14T03:54:40;56423.88;;;-142.21;100.00
5053;BME280;2545;50.892;5.740;2023-12-14T03:57:05;56406.22;;;-142.21;100.00
5053;BME280;2545;50.892;5.740;2023-12-14T03:59:31;56443.50;;;-142.21;100.00
5053;BME280;2545;50.892;5.740;2023-12-14T04:01:57;56421.91;;;-142.21;100.00
5053;BME280;2545;50.892;5.740;2023-12-14T04:04:23;56441.53;;;-142.21;100.00
5053;BME280;2545;50.892;5.740;2023-12-14T04:06:49;56425.84;;;-142.21;100.00
5053;BME280;2545;50.892;5.740;2023-12-14T04:09:14;56429.75;;;-142.21;100.00
5053;BME280;2545;50.892;5.740;2023-12-14T04:11:39;56441.53;;;-142.21;100.00
5053;BME280;2545;50.892;5.740;2023-12-14T04:14:05;56418.00;;;-142.21;100.00
5053;BME280;2545;50.892;5.740;2023-12-14T04:16:30;56419.97;;;-142.21;100.00
5053;BME280;2545;50.892;5.740;2023-12-14T04:18:55;56412.13;;;-142.21;100.00
5053;BME280;2545;50.892;5.740;2023-12-14T04:21:21;56398.38;;;-142.21;100.00
5053;BME280;2545;50.892;5.740;2023-12-14T04:23:47;56382.69;;;-142.21;100.00
5053;BME280;2545;50.892;5.740;2023-12-14T04:26:12;56429.75;;;-142.21;100.00
5053;BME280;2545;50.892;5.740;2023-12-14T04:28:38;56445.44;;;-142.21;100.00
5053;BME280;2545;50.892;5.740;2023-12-14T04:31:04;56392.50;;;-142.21;100.00
5053;BME280;2545;50.892;5.740;2023-12-14T04:33:29;56437.59;;;-142.21;100.00
5053;BME280;2545;50.892;5.740;2023-12-14T04:35:55;56416.03;;;-142.21;100.00
5053;BME280;2545;50.892;5.740;2023-12-14T04:38:20;56398.38;;;-142.21;100.00
5053;BME280;2545;50.892;5.740;2023-12-14T04:40:45;56425.84;;;-142.21;100.00
5053;BME280;2545;50.892;5.740;2023-12-14T04:43:10;56402.31;;;-142.21;100.00
5053;BME280;2545;50.892;5.740;2023-12-14T04:45:37;56447.41;;;-142.21;100.00
5053;BME280;2545;50.892;5.740;2023-12-14T04:48:03;56427.81;;;-142.21;100.00
5053;BME280;2545;50.892;5.740;2023-12-14T04:50:28;56449.38;;;-142.21;100.00
5053;BME280;2545;50.892;5.740;2023-12-14T04:52:53;56437.59;;;-142.21;100.00
5053;BME280;2545;50.892;5.740;2023-12-14T04:55:18;56437.59;;;-142.21;100.00
5053;BME280;2545;50.892;5.740;2023-12-14T04:57:45;56402.31;;;-142.21;100.00
5053;BME280;2545;50.892;5.740;2023-12-14T05:00:12;56443.50;;;-142.21;100.00
5053;BME280;2545;50.892;5.740;2023-12-14T05:02:37;56404.28;;;-142.21;100.00
5053;BME280;2545;50.892;5.740;2023-12-14T05:05:03;56449.38;;;-142.21;100.00
5053;BME280;2545;50.892;5.740;2023-12-14T05:07:28;56423.88;;;-142.21;100.00
5053;BME280;2545;50.892;5.740;2023-12-14T05:09:56;56402.31;;;-142.21;100.00
5053;BME280;2545;50.892;5.740;2023-12-14T05:12:31;56386.63;;;-142.21;100.00
5053;BME280;2545;50.892;5.740;2023-12-14T05:14:57;56425.84;;;-142.21;100.00
5053;BME280;2545;50.892;5.740;2023-12-14T05:17:22;56418.00;;;-142.21;100.00
5053;BME280;2545;50.892;5.740;2023-12-14T05:19:47;56427.81;;;-142.21;100.00
5053;BME280;2545;50.892;5.740;2023-12-14T05:22:13;56433.69;;;-142.21;100.00
5053;BME280;2545;50.892;5.740;2023-12-14T05:24:38;56437.59;;;-142.21;100.00
5053;BME280;2545;50.892;5.740;2023-12-14T05:27:04;56419.97;;;-142.21;100.00
5053;BME280;2545;50.892;5.740;2023-12-14T05:29:29;56414.06;;;-142.21;100.00
5053;BME280;2545;50.892;5.740;2023-12-14T05:31:55;56410.16;;;-142.21;100.00
5053;BME280;2545;50.892;5.740;2023-12-14T05:34:20;56443.50;;;-142.21;100.00
5053;BME280;2545;50.892;5.740;2023-12-14T05:36:45;56419.97;;;-142.21;100.00
5053;BME280;2545;50.892;5.740;2023-12-14T05:39:11;56404.28;;;-142.21;100.00
5053;BME280;2545;50.892;5.740;2023-12-14T05:41:40;56435.66;;;-142.21;100.00
5053;BME280;2545;50.892;5.740;2023-12-14T05:44:06;56418.00;;;-142.21;100.00
5053;BME280;2545;50.892;5.740;2023-12-14T05:46:31;56443.50;;;-142.21;100.00
5053;BME280;2545;50.892;5.740;2023-12-14T05:48:57;56437.59;;;-142.21;100.00
5053;BME280;2545;50.892;5.740;2023-12-14T05:51:27;56396.44;;;-142.21;100.00
5053;BME280;2545;50.892;5.740;2023-12-14T05:53:52;56398.38;;;-142.21;100.00
5053;BME280;2545;50.892;5.740;2023-12-14T05:56:17;56398.38;;;-142.21;100.00
5053;BME280;2545;50.892;5.740;2023-12-14T05:58:45;56416.03;;;-142.21;100.00
5053;BME280;2545;50.892;5.740;2023-12-14T06:01:10;56412.13;;;-142.21;100.00
5053;BME280;2545;50.892;5.740;2023-12-14T06:03:35;56418.00;;;-142.21;100.00
5053;BME280;2545;50.892;5.740;2023-12-14T06:06:01;56410.16;;;-142.21;100.00
5053;BME280;2545;50.892;5.740;2023-12-14T06:08:26;56423.88;;;-142.21;100.00
5053;BME280;2545;50.892;5.740;2023-12-14T06:10:51;56400.34;;;-142.21;100.00
5053;BME280;2545;50.892;5.740;2023-12-14T06:13:17;56410.16;;;-142.21;100.00
5053;BME280;2545;50.892;5.740;2023-12-14T06:15:42;56416.03;;;-142.21;100.00
5053;BME280;2545;50.892;5.740;2023-12-14T06:18:07;56418.00;;;-142.21;100.00
5053;BME280;2545;50.892;5.740;2023-12-14T06:20:32;56429.75;;;-142.21;100.00
5053;BME280;2545;50.892;5.740;2023-12-14T06:22:58;56390.53;;;-142.21;100.00
5053;BME280;2545;50.892;5.740;2023-12-14T06:25:23;56453.28;;;-142.21;100.00
5053;BME280;2545;50.892;5.740;2023-12-14T06:27:48;56427.81;;;-142.21;100.00
5053;BME280;2545;50.892;5.740;2023-12-14T06:30:14;56418.00;;;-142.21;100.00
5053;BME280;2545;50.892;5.740;2023-12-14T06:32:42;56394.47;;;-142.21;100.00
5053;BME280;2545;50.892;5.740;2023-12-14T06:35:07;56410.16;;;-142.21;100.00
5053;BME280;2545;50.892;5.740;2023-12-14T06:37:33;56437.59;;;-142.21;100.00
5053;BME280;2545;50.892;5.740;2023-12-14T06:39:58;56382.69;;;-142.21;100.00
5053;BME280;2545;50.892;5.740;2023-12-14T06:42:24;56441.53;;;-142.21;100.00
5053;BME280;2545;50.892;5.740;2023-12-14T06:44:52;56396.44;;;-142.21;100.00
5053;BME280;2545;50.892;5.740;2023-12-14T06:47:18;56408.19;;;-142.21;100.00
5053;BME280;2545;50.892;5.740;2023-12-14T06:49:43;56423.88;;;-142.21;100.00
5053;BME280;2545;50.892;5.740;2023-12-14T06:52:08;56423.88;;;-142.21;100.00
5053;BME280;2545;50.892;5.740;2023-12-14T06:54:34;56437.59;;;-142.21;100.00
5053;BME280;2545;50.892;5.740;2023-12-14T06:57:00;56421.91;;;-142.21;100.00
5053;BME280;2545;50.892;5.740;2023-12-14T06:59:25;56453.28;;;-142.21;100.00
5053;BME280;2545;50.892;5.740;2023-12-14T07:01:51;56427.81;;;-142.21;100.00
5053;BME280;2545;50.892;5.740;2023-12-14T07:04:17;56441.53;;;-142.21;100.00
5053;BME280;2545;50.892;5.740;2023-12-14T07:06:50;56439.56;;;-142.21;100.00
5053;BME280;2545;50.892;5.740;2023-12-14T07:09:16;56427.81;;;-142.21;100.00
5053;BME280;2545;50.892;5.740;2023-12-14T07:11:41;56378.78;;;-142.21;100.00
5053;BME280;2545;50.892;5.740;2023-12-14T07:14:06;56429.75;;;-142.21;100.00
5053;BME280;2545;50.892;5.740;2023-12-14T07:16:32;56404.28;;;-142.21;100.00
5053;BME280;2545;50.892;5.740;2023-12-14T07:18:57;56412.13;;;-142.21;100.00
5053;BME280;2545;50.892;5.740;2023-12-14T07:21:23;56410.16;;;-142.21;100.00
5053;BME280;2545;50.892;5.740;2023-12-14T07:23:48;56421.91;;;-142.21;100.00
5053;BME280;2545;50.892;5.740;2023-12-14T07:26:13;56445.44;;;-142.21;100.00
5053;BME280;2545;50.892;5.740;2023-12-14T07:28:40;56457.22;;;-142.21;100.00
5053;BME280;2545;50.892;5.740;2023-12-14T07:31:05;56427.81;;;-142.21;100.00
5053;BME280;2545;50.892;5.740;2023-12-14T07:33:32;56418.00;;;-142.21;100.00
5053;BME280;2545;50.892;5.740;2023-12-14T07:35:57;56378.78;;;-142.21;100.00
5053;BME280;2545;50.892;5.740;2023-12-14T07:38:23;56408.19;;;-142.21;100.00
5053;BME280;2545;50.892;5.740;2023-12-14T07:40:48;56429.75;;;-142.21;100.00
5053;BME280;2545;50.892;5.740;2023-12-14T07:43:15;56412.13;;;-142.21;100.00
5053;BME280;2545;50.892;5.740;2023-12-14T07:45:40;56453.28;;;-142.21;100.00
5053;BME280;2545;50.892;5.740;2023-12-14T07:48:06;56437.59;;;-142.21;100.00
5053;BME280;2545;50.892;5.740;2023-12-14T07:50:31;56398.38;;;-142.21;100.00
5053;BME280;2545;50.892;5.740;2023-12-14T07:52:56;56441.53;;;-142.21;100.00
5053;BME280;2545;50.892;5.740;2023-12-14T07:55:22;56419.97;;;-142.21;100.00
5053;BME280;2545;50.892;5.740;2023-12-14T07:57:47;56435.66;;;-142.21;100.00
5053;BME280;2545;50.892;5.740;2023-12-14T08:00:13;56429.75;;;-142.21;100.00
5053;BME280;2545;50.892;5.740;2023-12-14T08:02:39;56414.06;;;-142.21;100.00
5053;BME280;2545;50.892;5.740;2023-12-14T08:05:05;56435.66;;;-142.21;100.00
5053;BME280;2545;50.892;5.740;2023-12-14T08:07:31;56390.53;;;-142.21;100.00
5053;BME280;2545;50.892;5.740;2023-12-14T08:09:56;56398.38;;;-142.21;100.00
5053;BME280;2545;50.892;5.740;2023-12-14T08:12:23;56423.88;;;-142.21;100.00
5053;BME280;2545;50.892;5.740;2023-12-14T08:14:50;56414.06;;;-142.21;100.00
5053;BME280;2545;50.892;5.740;2023-12-14T08:17:15;56414.06;;;-142.21;100.00
5053;BME280;2545;50.892;5.740;2023-12-14T08:19:41;56400.34;;;-142.21;100.00
5053;BME280;2545;50.892;5.740;2023-12-14T08:22:09;56418.00;;;-142.21;100.00
5053;BME280;2545;50.892;5.740;2023-12-14T08:24:37;56398.38;;;-142.21;100.00
5053;BME280;2545;50.892;5.740;2023-12-14T08:27:03;56425.84;;;-142.21;100.00
5053;BME280;2545;50.892;5.740;2023-12-14T08:29:28;56398.38;;;-142.21;100.00
5053;BME280;2545;50.892;5.740;2023-12-14T08:31:54;56404.28;;;-142.21;100.00
5053;BME280;2545;50.892;5.740;2023-12-14T08:34:25;56425.84;;;-142.21;100.00
5053;BME280;2545;50.892;5.740;2023-12-14T08:36:51;56386.63;;;-142.21;100.00
5053;BME280;2545;50.892;5.740;2023-12-14T08:39:16;56429.75;;;-142.21;100.00
5053;BME280;2545;50.892;5.740;2023-12-14T08:41:42;56402.31;;;-142.21;100.00
5053;BME280;2545;50.892;5.740;2023-12-14T08:44:08;56457.22;;;-142.21;100.00
5053;BME280;2545;50.892;5.740;2023-12-14T08:46:44;56400.34;;;-142.21;100.00
5053;BME280;2545;50.892;5.740;2023-12-14T08:49:11;56398.38;;;-142.21;100.00
5053;BME280;2545;50.892;5.740;2023-12-14T08:51:36;56390.53;;;-142.21;100.00
5053;BME280;2545;50.892;5.740;2023-12-14T08:54:01;56402.31;;;-142.21;100.00
5053;BME280;2545;50.892;5.740;2023-12-14T08:56:27;56427.81;;;-142.21;100.00
5053;BME280;2545;50.892;5.740;2023-12-14T08:58:52;56390.53;;;-142.21;100.00
5053;BME280;2545;50.892;5.740;2023-12-14T09:01:21;56374.84;;;-142.21;100.00
5053;BME280;2545;50.892;5.740;2023-12-14T09:03:47;56414.06;;;-142.21;100.00
5053;BME280;2545;50.892;5.740;2023-12-14T09:06:13;56435.66;;;-142.21;100.00
5053;BME280;2545;50.892;5.740;2023-12-14T09:08:39;56414.06;;;-142.21;100.00
5053;BME280;2545;50.892;5.740;2023-12-14T09:11:05;56349.38;;;-142.21;100.00
5053;BME280;2545;50.892;5.740;2023-12-14T09:13:30;56386.63;;;-142.21;100.00
5053;BME280;2545;50.892;5.740;2023-12-14T09:15:55;56400.34;;;-142.21;100.00
5053;BME280;2545;50.892;5.740;2023-12-14T09:18:22;56443.50;;;-142.21;100.00
5053;BME280;2545;50.892;5.740;2023-12-14T09:20:49;56437.59;;;-142.21;100.00
5053;BME280;2545;50.892;5.740;2023-12-14T09:23:16;56429.75;;;-142.21;100.00
5053;BME280;2545;50.892;5.740;2023-12-14T09:25:41;56406.22;;;-142.21;100.00
5053;BME280;2545;50.892;5.740;2023-12-14T09:28:06;56388.59;;;-142.21;100.00
5053;BME280;2545;50.892;5.740;2023-12-14T09:30:32;56423.88;;;-142.21;100.00
5053;BME280;2545;50.892;5.740;2023-12-14T09:32:59;56390.53;;;-142.21;100.00
5053;BME280;2545;50.892;5.740;2023-12-14T09:35:24;56439.56;;;-142.21;100.00
5053;BME280;2545;50.892;5.740;2023-12-14T09:37:49;56431.72;;;-142.21;100.00
5053;BME280;2545;50.892;5.740;2023-12-14T09:40:15;56418.00;;;-142.21;100.00
5053;BME280;2545;50.892;5.740;2023-12-14T09:42:42;56412.13;;;-142.21;100.00
5053;BME280;2545;50.892;5.740;2023-12-14T09:45:08;56421.91;;;-142.21;100.00
5053;BME280;2545;50.892;5.740;2023-12-14T09:47:36;56414.06;;;-142.21;100.00
5053;BME280;2545;50.892;5.740;2023-12-14T09:50:02;56457.22;;;-142.21;100.00
5053;BME280;2545;50.892;5.740;2023-12-14T09:52:28;56427.81;;;-142.21;100.00
5053;BME280;2545;50.892;5.740;2023-12-14T09:54:54;56433.69;;;-142.21;100.00
5053;BME280;2545;50.892;5.740;2023-12-14T09:57:19;56418.00;;;-142.21;100.00
5053;BME280;2545;50.892;5.740;2023-12-14T09:59:52;56410.16;;;-142.21;100.00
5053;BME280;2545;50.892;5.740;2023-12-14T10:02:18;56421.91;;;-142.21;100.00
5053;BME280;2545;50.892;5.740;2023-12-14T10:04:46;56382.69;;;-142.21;100.00
5053;BME280;2545;50.892;5.740;2023-12-14T10:07:12;56416.03;;;-142.21;100.00
5053;BME280;2545;50.892;5.740;2023-12-14T10:09:37;56433.69;;;-142.21;100.00
5053;BME280;2545;50.892;5.740;2023-12-14T10:12:07;56418.00;;;-142.21;100.00
5053;BME280;2545;50.892;5.740;2023-12-14T10:14:34;56425.84;;;-142.21;100.00
5053;BME280;2545;50.892;5.740;2023-12-14T10:17:16;56394.47;;;-142.21;100.00
5053;BME280;2545;50.892;5.740;2023-12-14T10:19:43;56416.03;;;-142.21;100.00
5053;BME280;2545;50.892;5.740;2023-12-14T10:22:08;56408.19;;;-142.21;100.00
5053;BME280;2545;50.892;5.740;2023-12-14T10:24:34;56425.84;;;-142.21;100.00
5053;BME280;2545;50.892;5.740;2023-12-14T10:27:00;56376.81;;;-142.21;100.00
5053;BME280;2545;50.892;5.740;2023-12-14T10:29:32;56414.06;;;-142.21;100.00
5053;BME280;2545;50.892;5.740;2023-12-14T10:31:58;56394.47;;;-142.21;100.00
5053;BME280;2545;50.892;5.740;2023-12-14T10:34:24;56418.00;;;-142.21;100.00
5053;BME280;2545;50.892;5.740;2023-12-14T10:36:49;56425.84;;;-142.21;100.00
5053;BME280;2545;50.892;5.740;2023-12-14T10:39:16;56406.22;;;-142.21;100.00
5053;BME280;2545;50.892;5.740;2023-12-14T10:41:46;56398.38;;;-142.21;100.00
5053;BME280;2545;50.892;5.740;2023-12-14T10:44:14;56402.31;;;-142.21;100.00
5053;BME280;2545;50.892;5.740;2023-12-14T10:46:41;56398.38;;;-142.21;100.00
5053;BME280;2545;50.892;5.740;2023-12-14T10:49:07;56398.38;;;-142.21;100.00
5053;BME280;2545;50.892;5.740;2023-12-14T10:51:34;56463.09;;;-142.21;100.00
5053;BME280;2545;50.892;5.740;2023-12-14T10:54:02;56416.03;;;-142.21;100.00
5053;BME280;2545;50.892;5.740;2023-12-14T10:56:28;56412.13;;;-142.21;100.00
5053;BME280;2545;50.892;5.740;2023-12-14T10:58:55;56419.97;;;-142.21;100.00
5053;BME280;2545;50.892;5.740;2023-12-14T11:01:23;56406.22;;;-142.21;100.00
5053;BME280;2545;50.892;5.740;2023-12-14T11:03:50;56441.53;;;-142.21;100.00
5053;BME280;2545;50.892;5.740;2023-12-14T11:06:36;56410.16;;;-142.21;98.69
5053;BME280;2545;50.892;5.740;2023-12-14T11:09:08;56443.50;;;-142.21;97.75
5053;BME280;2545;50.892;5.740;2023-12-14T11:14:22;56441.53;;;-142.21;96.93
5053;BME280;2545;50.892;5.740;2023-12-14T11:16:48;56404.28;;;-142.21;96.41
5053;BME280;2545;50.892;5.740;2023-12-14T11:24:23;56388.59;;;-142.21;93.16
5053;BME280;2545;50.892;5.740;2023-12-14T11:26:54;56423.88;;;-142.21;91.77
5053;BME280;2545;50.892;5.740;2023-12-14T11:29:19;56382.69;;;-142.21;90.19
5053;BME280;2545;50.892;5.740;2023-12-14T11:31:47;56370.94;;;-142.21;89.44
5053;BME280;2545;50.892;5.740;2023-12-14T11:34:14;56453.28;;;-142.21;89.32
5053;BME280;2545;50.892;5.740;2023-12-14T11:36:40;56406.22;;;-142.21;88.49
5053;BME280;2545;50.892;5.740;2023-12-14T11:39:09;56363.09;;;-142.21;87.65
5053;BME280;2545;50.892;5.740;2023-12-14T11:41:35;56396.44;;;-142.21;86.51
5053;BME280;2545;50.892;5.740;2023-12-14T11:44:01;56410.16;;;-142.21;85.53
5053;BME280;2545;50.892;5.740;2023-12-14T11:46:28;56431.72;;;-142.21;84.95
5053;BME280;2545;50.892;5.740;2023-12-14T11:48:56;56410.16;;;-142.21;84.12
5053;BME280;2545;50.892;5.740;2023-12-14T11:51:21;56431.72;;;-142.21;83.55
5053;BME280;2545;50.892;5.740;2023-12-14T11:53:47;56386.63;;;-142.21;79.85
5053;BME280;2545;50.892;5.740;2023-12-14T11:56:19;56376.81;;;-142.21;77.78
5053;BME280;2545;50.892;5.740;2023-12-14T11:58:44;56374.84;;;-142.21;76.51
5053;BME280;2545;50.892;5.740;2023-12-14T12:01:20;56400.34;;;-142.21;76.53
5053;BME280;2545;50.892;5.740;2023-12-14T12:03:50;56414.06;;;-142.21;75.26
5053;BME280;2545;50.892;5.740;2023-12-14T12:06:25;56410.16;;;-142.21;74.96
5053;BME280;2545;50.892;5.740;2023-12-14T12:08:52;56421.91;;;-142.21;75.71
5053;BME280;2545;50.892;5.740;2023-12-14T12:11:19;56392.50;;;-142.21;75.29
5053;BME280;2545;50.892;5.740;2023-12-14T12:13:55;56402.31;;;-142.21;75.67
5053;BME280;2545;50.892;5.740;2023-12-14T12:16:21;56427.81;;;-142.21;76.44
5053;BME280;2545;50.892;5.740;2023-12-14T12:18:47;56402.31;;;-142.21;76.27
5053;BME280;2545;50.892;5.740;2023-12-14T12:21:14;56372.91;;;-142.21;76.31
5053;BME280;2545;50.892;5.740;2023-12-14T12:23:39;56382.69;;;-142.21;76.66
5053;BME280;2545;50.892;5.740;2023-12-14T12:26:07;56388.59;;;-142.21;77.02
5053;BME280;2545;50.892;5.740;2023-12-14T12:28:32;56408.19;;;-142.21;76.71
5053;BME280;2545;50.892;5.740;2023-12-14T12:30:57;56390.53;;;-142.21;76.35
5053;BME280;2545;50.892;5.740;2023-12-14T12:33:24;56394.47;;;-142.21;76.20
5053;BME280;2545;50.892;5.740;2023-12-14T12:35:52;56410.16;;;-142.21;76.99
5053;BME280;2545;50.892;5.740;2023-12-14T12:38:18;56400.34;;;-142.21;76.67
5053;BME280;2545;50.892;5.740;2023-12-14T12:40:44;56368.97;;;-142.21;76.43
5053;BME280;2545;50.892;5.740;2023-12-14T12:43:10;56341.53;;;-142.21;76.15
5053;BME280;2545;50.892;5.740;2023-12-14T12:45:36;56398.38;;;-142.21;76.02
5053;BME280;2545;50.892;5.740;2023-12-14T12:48:03;56418.00;;;-142.21;76.15
5053;BME280;2545;50.892;5.740;2023-12-14T12:50:29;56441.53;;;-142.21;76.75
5053;BME280;2545;50.892;5.740;2023-12-14T12:52:54;56394.47;;;-142.21;76.51